sensor_id;sensor_type;location;lat;lon;timestamp;temperature;humidity
22769;DHT22;13001;51.968;5.918;2024-03-17T00:00:32;7.50;97.50
22769;DHT22;13001;51.968;5.918;2024-03-17T00:03:00;7.50;97.60
22769;DHT22;13001;51.968;5.918;2024-03-17T00:05:27;7.40;97.60
22769;DHT22;13001;51.968;5.918;2024-03-17T00:07:55;7.40;97.70
22769;DHT22;13001;51.968;5.918;2024-03-17T00:10:22;7.40;97.70
22769;DHT22;13001;51.968;5.918;2024-03-17T00:12:51;7.30;97.70
22769;DHT22;13001;51.968;5.918;2024-03-17T00:15:20;7.20;97.80
22769;DHT22;13001;51.968;5.918;2024-03-17T00:17:47;7.20;97.90
22769;DHT22;13001;51.968;5.918;2024-03-17T00:20:15;7.20;97.90
22769;DHT22;13001;51.968;5.918;2024-03-17T00:22:50;7.20;97.90
22769;DHT22;13001;51.968;5.918;2024-03-17T00:25:19;7.20;98.20
22769;DHT22;13001;51.968;5.918;2024-03-17T00:27:46;7.10;98.00
22769;DHT22;13001;51.968;5.918;2024-03-17T00:30:15;7.10;98.10
22769;DHT22;13001;51.968;5.918;2024-03-17T00:32:43;7.10;98.20
22769;DHT22;13001;51.968;5.918;2024-03-17T00:35:11;7.00;98.60
22769;DHT22;13001;51.968;5.918;2024-03-17T00:37:41;7.00;98.60
22769;DHT22;13001;51.968;5.918;2024-03-17T00:40:09;7.10;98.70
22769;DHT22;13001;51.968;5.918;2024-03-17T00:42:38;7.10;98.70
22769;DHT22;13001;51.968;5.918;2024-03-17T00:45:06;7.10;98.80
22769;DHT22;13001;51.968;5.918;2024-03-17T00:47:36;7.10;98.90
22769;DHT22;13001;51.968;5.918;2024-03-17T00:50:03;7.00;98.80
22769;DHT22;13001;51.968;5.918;2024-03-17T00:52:33;7.10;98.60
22769;DHT22;13001;51.968;5.918;2024-03-17T00:55:00;7.00;98.80
22769;DHT22;13001;51.968;5.918;2024-03-17T00:57:28;7.10;98.90
22769;DHT22;13001;51.968;5.918;2024-03-17T00:59:56;7.00;98.90
22769;DHT22;13001;51.968;5.918;2024-03-17T01:02:23;7.00;98.90
22769;DHT22;13001;51.968;5.918;2024-03-17T01:04:51;7.00;98.90
22769;DHT22;13001;51.968;5.918;2024-03-17T01:07:19;7.00;99.10
22769;DHT22;13001;51.968;5.918;2024-03-17T01:09:47;7.00;99.30
22769;DHT22;13001;51.968;5.918;2024-03-17T01:12:15;7.00;99.40
22769;DHT22;13001;51.968;5.918;2024-03-17T01:14:42;7.10;99.50
22769;DHT22;13001;51.968;5.918;2024-03-17T01:17:10;7.10;99.60
22769;DHT22;13001;51.968;5.918;2024-03-17T01:19:37;7.10;99.60
22769;DHT22;13001;51.968;5.918;2024-03-17T01:22:05;7.10;99.60
22769;DHT22;13001;51.968;5.918;2024-03-17T01:24:32;7.10;99.60
22769;DHT22;13001;51.968;5.918;2024-03-17T01:27:01;7.10;99.50
22769;DHT22;13001;51.968;5.918;2024-03-17T01:29:28;7.20;99.50
22769;DHT22;13001;51.968;5.918;2024-03-17T01:31:56;7.10;99.50
22769;DHT22;13001;51.968;5.918;2024-03-17T01:34:23;7.20;99.80
22769;DHT22;13001;51.968;5.918;2024-03-17T01:36:51;7.10;99.40
22769;DHT22;13001;51.968;5.918;2024-03-17T01:39:18;7.10;99.50
22769;DHT22;13001;51.968;5.918;2024-03-17T01:41:47;7.10;99.60
22769;DHT22;13001;51.968;5.918;2024-03-17T01:44:30;7.00;99.70
22769;DHT22;13001;51.968;5.918;2024-03-17T01:46:56;7.00;99.80
22769;DHT22;13001;51.968;5.918;2024-03-17T01:49:25;7.00;99.90
22769;DHT22;13001;51.968;5.918;2024-03-17T01:51:53;7.00;99.90
22769;DHT22;13001;51.968;5.918;2024-03-17T01:54:21;6.90;99.90
22769;DHT22;13001;51.968;5.918;2024-03-17T01:56:49;6.90;99.90
22769;DHT22;13001;51.968;5.918;2024-03-17T01:59:17;6.90;99.90
22769;DHT22;13001;51.968;5.918;2024-03-17T02:01:44;6.90;99.90
22769;DHT22;13001;51.968;5.918;2024-03-17T02:04:12;6.90;99.90
22769;DHT22;13001;51.968;5.918;2024-03-17T02:06:39;6.90;99.90
22769;DHT22;13001;51.968;5.918;2024-03-17T02:09:08;6.90;99.90
22769;DHT22;13001;51.968;5.918;2024-03-17T02:11:36;6.90;99.90
22769;DHT22;13001;51.968;5.918;2024-03-17T02:14:05;6.90;99.90
22769;DHT22;13001;51.968;5.918;2024-03-17T02:16:34;7.00;99.90
22769;DHT22;13001;51.968;5.918;2024-03-17T02:19:01;7.00;99.90
22769;DHT22;13001;51.968;5.918;2024-03-17T02:21:29;7.00;99.90
22769;DHT22;13001;51.968;5.918;2024-03-17T02:23:56;6.90;99.90
22769;DHT22;13001;51.968;5.918;2024-03-17T02:26:26;7.00;99.90
22769;DHT22;13001;51.968;5.918;2024-03-17T02:28:54;7.00;99.90
22769;DHT22;13001;51.968;5.918;2024-03-17T02:31:21;6.90;99.90
22769;DHT22;13001;51.968;5.918;2024-03-17T02:33:49;6.90;99.90
22769;DHT22;13001;51.968;5.918;2024-03-17T02:36:16;7.00;99.90
22769;DHT22;13001;51.968;5.918;2024-03-17T02:38:44;7.00;99.90
22769;DHT22;13001;51.968;5.918;2024-03-17T02:41:29;7.00;99.90
22769;DHT22;13001;51.968;5.918;2024-03-17T02:43:58;7.00;99.90
22769;DHT22;13001;51.968;5.918;2024-03-17T02:46:25;7.00;99.90
22769;DHT22;13001;51.968;5.918;2024-03-17T02:48:54;7.10;99.90
22769;DHT22;13001;51.968;5.918;2024-03-17T02:51:22;7.10;99.90
22769;DHT22;13001;51.968;5.918;2024-03-17T02:53:51;7.20;99.90
22769;DHT22;13001;51.968;5.918;2024-03-17T02:56:19;7.20;99.90
22769;DHT22;13001;51.968;5.918;2024-03-17T02:58:47;7.20;99.90
22769;DHT22;13001;51.968;5.918;2024-03-17T03:01:17;7.20;99.90
22769;DHT22;13001;51.968;5.918;2024-03-17T03:03:46;7.30;99.90
22769;DHT22;13001;51.968;5.918;2024-03-17T03:06:15;7.20;99.90
22769;DHT22;13001;51.968;5.918;2024-03-17T03:08:44;7.20;99.90
22769;DHT22;13001;51.968;5.918;2024-03-17T03:11:16;7.20;99.90
22769;DHT22;13001;51.968;5.918;2024-03-17T03:13:44;7.20;99.90
22769;DHT22;13001;51.968;5.918;2024-03-17T03:16:13;7.20;99.90
22769;DHT22;13001;51.968;5.918;2024-03-17T03:18:41;7.20;99.90
22769;DHT22;13001;51.968;5.918;2024-03-17T03:21:11;7.20;99.90
22769;DHT22;13001;51.968;5.918;2024-03-17T03:23:42;7.20;99.90
22769;DHT22;13001;51.968;5.918;2024-03-17T03:26:11;7.20;99.90
22769;DHT22;13001;51.968;5.918;2024-03-17T03:28:38;7.30;99.90
22769;DHT22;13001;51.968;5.918;2024-03-17T03:31:10;7.30;99.90
22769;DHT22;13001;51.968;5.918;2024-03-17T03:33:35;7.30;99.90
22769;DHT22;13001;51.968;5.918;2024-03-17T03:36:14;7.40;99.90
22769;DHT22;13001;51.968;5.918;2024-03-17T03:38:43;7.40;99.90
22769;DHT22;13001;51.968;5.918;2024-03-17T03:41:14;7.50;99.90
22769;DHT22;13001;51.968;5.918;2024-03-17T03:43:43;7.50;99.90
22769;DHT22;13001;51.968;5.918;2024-03-17T03:46:12;7.50;99.90
22769;DHT22;13001;51.968;5.918;2024-03-17T03:48:39;7.60;99.90
22769;DHT22;13001;51.968;5.918;2024-03-17T03:51:08;7.70;99.90
22769;DHT22;13001;51.968;5.918;2024-03-17T03:53:37;7.70;99.80
22769;DHT22;13001;51.968;5.918;2024-03-17T03:56:06;7.70;99.70
22769;DHT22;13001;51.968;5.918;2024-03-17T03:58:38;7.70;99.80
22769;DHT22;13001;51.968;5.918;2024-03-17T04:01:08;7.80;99.90
22769;DHT22;13001;51.968;5.918;2024-03-17T04:03:38;7.80;99.90
22769;DHT22;13001;51.968;5.918;2024-03-17T04:06:06;7.80;99.90
22769;DHT22;13001;51.968;5.918;2024-03-17T04:08:36;7.80;99.80
22769;DHT22;13001;51.968;5.918;2024-03-17T04:11:06;7.80;99.60
22769;DHT22;13001;51.968;5.918;2024-03-17T04:13:34;7.90;99.60
22769;DHT22;13001;51.968;5.918;2024-03-17T04:16:03;7.90;99.40
22769;DHT22;13001;51.968;5.918;2024-03-17T04:18:32;7.90;99.30
22769;DHT22;13001;51.968;5.918;2024-03-17T04:21:05;7.90;99.10
22769;DHT22;13001;51.968;5.918;2024-03-17T04:23:36;7.90;99.10
22769;DHT22;13001;51.968;5.918;2024-03-17T04:26:04;7.90;99.10
22769;DHT22;13001;51.968;5.918;2024-03-17T04:28:33;7.90;99.10
22769;DHT22;13001;51.968;5.918;2024-03-17T04:31:03;7.90;99.20
22769;DHT22;13001;51.968;5.918;2024-03-17T04:33:34;7.90;99.10
22769;DHT22;13001;51.968;5.918;2024-03-17T04:36:05;7.90;99.20
22769;DHT22;13001;51.968;5.918;2024-03-17T04:38:34;7.90;99.30
22769;DHT22;13001;51.968;5.918;2024-03-17T04:41:02;7.80;99.20
22769;DHT22;13001;51.968;5.918;2024-03-17T04:43:34;7.80;99.30
22769;DHT22;13001;51.968;5.918;2024-03-17T04:46:04;7.80;99.40
22769;DHT22;13001;51.968;5.918;2024-03-17T04:48:33;7.80;99.60
22769;DHT22;13001;51.968;5.918;2024-03-17T04:51:01;7.70;99.60
22769;DHT22;13001;51.968;5.918;2024-03-17T04:53:28;7.70;99.70
22769;DHT22;13001;51.968;5.918;2024-03-17T04:56:04;7.70;99.70
22769;DHT22;13001;51.968;5.918;2024-03-17T04:58:33;7.60;99.70
22769;DHT22;13001;51.968;5.918;2024-03-17T05:01:05;7.60;99.90
22769;DHT22;13001;51.968;5.918;2024-03-17T05:03:33;7.50;99.90
22769;DHT22;13001;51.968;5.918;2024-03-17T05:06:04;7.50;99.90
22769;DHT22;13001;51.968;5.918;2024-03-17T05:08:33;7.50;99.90
22769;DHT22;13001;51.968;5.918;2024-03-17T05:11:05;7.40;99.90
22769;DHT22;13001;51.968;5.918;2024-03-17T05:13:34;7.40;99.90
22769;DHT22;13001;51.968;5.918;2024-03-17T05:16:02;7.30;99.90
22769;DHT22;13001;51.968;5.918;2024-03-17T05:18:33;7.30;99.90
22769;DHT22;13001;51.968;5.918;2024-03-17T05:21:01;7.30;99.90
22769;DHT22;13001;51.968;5.918;2024-03-17T05:23:31;7.30;99.90
22769;DHT22;13001;51.968;5.918;2024-03-17T05:26:00;7.40;99.90
22769;DHT22;13001;51.968;5.918;2024-03-17T05:28:29;7.40;99.90
22769;DHT22;13001;51.968;5.918;2024-03-17T05:30:57;7.40;99.90
22769;DHT22;13001;51.968;5.918;2024-03-17T05:33:26;7.50;99.90
22769;DHT22;13001;51.968;5.918;2024-03-17T05:35:55;7.50;99.90
22769;DHT22;13001;51.968;5.918;2024-03-17T05:38:24;7.50;99.90
22769;DHT22;13001;51.968;5.918;2024-03-17T05:40:59;7.50;99.90
22769;DHT22;13001;51.968;5.918;2024-03-17T05:43:29;7.50;99.90
22769;DHT22;13001;51.968;5.918;2024-03-17T05:45:58;7.50;99.90
22769;DHT22;13001;51.968;5.918;2024-03-17T05:48:29;7.50;99.90
22769;DHT22;13001;51.968;5.918;2024-03-17T05:50:57;7.50;99.90
22769;DHT22;13001;51.968;5.918;2024-03-17T05:53:26;7.50;99.90
22769;DHT22;13001;51.968;5.918;2024-03-17T05:55:53;7.50;99.90
22769;DHT22;13001;51.968;5.918;2024-03-17T05:58:21;7.60;99.90
22769;DHT22;13001;51.968;5.918;2024-03-17T06:00:49;7.50;99.90
22769;DHT22;13001;51.968;5.918;2024-03-17T06:03:17;7.60;99.90
22769;DHT22;13001;51.968;5.918;2024-03-17T06:05:44;7.60;99.90
22769;DHT22;13001;51.968;5.918;2024-03-17T06:08:15;7.70;99.90
22769;DHT22;13001;51.968;5.918;2024-03-17T06:10:48;7.70;99.90
22769;DHT22;13001;51.968;5.918;2024-03-17T06:13:16;7.70;99.90
22769;DHT22;13001;51.968;5.918;2024-03-17T06:15:44;7.70;99.90
22769;DHT22;13001;51.968;5.918;2024-03-17T06:18:14;7.70;99.90
22769;DHT22;13001;51.968;5.918;2024-03-17T06:20:45;7.80;99.90
22769;DHT22;13001;51.968;5.918;2024-03-17T06:23:14;7.90;99.90
22769;DHT22;13001;51.968;5.918;2024-03-17T06:25:44;7.90;99.90
22769;DHT22;13001;51.968;5.918;2024-03-17T06:28:13;8.10;99.90
22769;DHT22;13001;51.968;5.918;2024-03-17T06:30:45;8.20;99.90
22769;DHT22;13001;51.968;5.918;2024-03-17T06:33:15;8.40;99.90
22769;DHT22;13001;51.968;5.918;2024-03-17T06:35:45;8.70;99.90
22769;DHT22;13001;51.968;5.918;2024-03-17T06:38:14;9.10;99.90
22769;DHT22;13001;51.968;5.918;2024-03-17T06:40:50;9.90;99.90
22769;DHT22;13001;51.968;5.918;2024-03-17T06:43:19;11.30;99.90
22769;DHT22;13001;51.968;5.918;2024-03-17T06:46:00;12.90;98.30
22769;DHT22;13001;51.968;5.918;2024-03-17T06:48:28;14.30;96.50
22769;DHT22;13001;51.968;5.918;2024-03-17T06:50:56;14.80;93.80
22769;DHT22;13001;51.968;5.918;2024-03-17T06:53:26;15.00;93.30
22769;DHT22;13001;51.968;5.918;2024-03-17T06:55:55;15.70;92.70
22769;DHT22;13001;51.968;5.918;2024-03-17T06:58:24;16.60;92.10
22769;DHT22;13001;51.968;5.918;2024-03-17T07:00:57;17.60;90.40
22769;DHT22;13001;51.968;5.918;2024-03-17T07:03:28;18.20;86.50
22769;DHT22;13001;51.968;5.918;2024-03-17T07:05:58;18.20;85.30
22769;DHT22;13001;51.968;5.918;2024-03-17T07:08:27;18.60;83.10
22769;DHT22;13001;51.968;5.918;2024-03-17T07:13:29;17.80;80.10
22769;DHT22;13001;51.968;5.918;2024-03-17T07:15:57;17.00;80.80
22769;DHT22;13001;51.968;5.918;2024-03-17T07:18:26;16.00;82.20
22769;DHT22;13001;51.968;5.918;2024-03-17T07:21:13;15.10;84.20
22769;DHT22;13001;51.968;5.918;2024-03-17T07:23:41;14.50;86.20
22769;DHT22;13001;51.968;5.918;2024-03-17T07:26:08;14.00;87.30
22769;DHT22;13001;51.968;5.918;2024-03-17T07:28:36;13.60;88.70
22769;DHT22;13001;51.968;5.918;2024-03-17T07:31:11;13.40;89.60
22769;DHT22;13001;51.968;5.918;2024-03-17T07:33:38;13.20;90.10
22769;DHT22;13001;51.968;5.918;2024-03-17T07:36:06;12.90;90.20
22769;DHT22;13001;51.968;5.918;2024-03-17T07:38:38;12.60;90.40
22769;DHT22;13001;51.968;5.918;2024-03-17T07:41:07;12.40;90.80
22769;DHT22;13001;51.968;5.918;2024-03-17T07:43:38;12.40;91.40
22769;DHT22;13001;51.968;5.918;2024-03-17T07:46:07;13.20;91.90
22769;DHT22;13001;51.968;5.918;2024-03-17T07:48:37;14.40;90.70
22769;DHT22;13001;51.968;5.918;2024-03-17T07:51:06;15.10;88.70
22769;DHT22;13001;51.968;5.918;2024-03-17T07:53:36;15.60;86.90
22769;DHT22;13001;51.968;5.918;2024-03-17T07:56:11;16.00;85.70
22769;DHT22;13001;51.968;5.918;2024-03-17T07:58:42;16.40;84.70
22769;DHT22;13001;51.968;5.918;2024-03-17T08:01:12;16.80;83.10
22769;DHT22;13001;51.968;5.918;2024-03-17T08:03:41;17.00;82.00
22769;DHT22;13001;51.968;5.918;2024-03-17T08:06:11;17.30;81.30
22769;DHT22;13001;51.968;5.918;2024-03-17T08:08:39;17.50;79.70
22769;DHT22;13001;51.968;5.918;2024-03-17T08:11:07;17.60;79.00
22769;DHT22;13001;51.968;5.918;2024-03-17T08:13:34;17.70;77.70
22769;DHT22;13001;51.968;5.918;2024-03-17T08:16:07;17.70;77.20
22769;DHT22;13001;51.968;5.918;2024-03-17T08:18:38;17.70;76.50
22769;DHT22;13001;51.968;5.918;2024-03-17T08:21:05;17.80;75.80
22769;DHT22;13001;51.968;5.918;2024-03-17T08:23:33;17.70;75.30
22769;DHT22;13001;51.968;5.918;2024-03-17T08:26:09;17.80;73.00
22769;DHT22;13001;51.968;5.918;2024-03-17T08:28:36;17.80;71.00
22769;DHT22;13001;51.968;5.918;2024-03-17T08:31:05;17.50;70.40
22769;DHT22;13001;51.968;5.918;2024-03-17T08:33:32;17.30;70.50
22769;DHT22;13001;51.968;5.918;2024-03-17T08:36:07;17.40;71.40
22769;DHT22;13001;51.968;5.918;2024-03-17T08:38:36;18.00;70.40
22769;DHT22;13001;51.968;5.918;2024-03-17T08:41:05;18.50;68.20
22769;DHT22;13001;51.968;5.918;2024-03-17T08:43:33;18.50;68.20
22769;DHT22;13001;51.968;5.918;2024-03-17T08:46:05;18.60;68.40
22769;DHT22;13001;51.968;5.918;2024-03-17T08:48:35;18.40;68.00
22769;DHT22;13001;51.968;5.918;2024-03-17T08:51:06;17.90;68.40
22769;DHT22;13001;51.968;5.918;2024-03-17T08:53:34;17.30;69.50
22769;DHT22;13001;51.968;5.918;2024-03-17T08:56:04;16.80;70.90
22769;DHT22;13001;51.968;5.918;2024-03-17T08:58:34;16.30;72.10
22769;DHT22;13001;51.968;5.918;2024-03-17T09:01:08;15.70;73.40
22769;DHT22;13001;51.968;5.918;2024-03-17T09:03:35;15.40;74.80
22769;DHT22;13001;51.968;5.918;2024-03-17T09:06:03;15.10;75.90
22769;DHT22;13001;51.968;5.918;2024-03-17T09:08:31;14.90;76.40
22769;DHT22;13001;51.968;5.918;2024-03-17T09:11:00;14.70;77.00
22769;DHT22;13001;51.968;5.918;2024-03-17T09:13:27;14.60;77.90
22769;DHT22;13001;51.968;5.918;2024-03-17T09:15:56;14.50;78.50
22769;DHT22;13001;51.968;5.918;2024-03-17T09:18:32;14.50;78.70
22769;DHT22;13001;51.968;5.918;2024-03-17T09:21:06;14.30;78.80
22769;DHT22;13001;51.968;5.918;2024-03-17T09:23:35;14.20;79.40
22769;DHT22;13001;51.968;5.918;2024-03-17T09:26:06;14.20;79.70
22769;DHT22;13001;51.968;5.918;2024-03-17T09:28:38;14.10;79.70
22769;DHT22;13001;51.968;5.918;2024-03-17T09:31:07;14.10;80.70
22769;DHT22;13001;51.968;5.918;2024-03-17T09:33:36;14.10;80.40
22769;DHT22;13001;51.968;5.918;2024-03-17T09:36:06;14.10;80.50
22769;DHT22;13001;51.968;5.918;2024-03-17T09:38:35;14.10;80.30
22769;DHT22;13001;51.968;5.918;2024-03-17T09:41:03;14.10;80.60
22769;DHT22;13001;51.968;5.918;2024-03-17T09:43:35;14.10;80.80
22769;DHT22;13001;51.968;5.918;2024-03-17T09:46:06;14.10;80.70
22769;DHT22;13001;51.968;5.918;2024-03-17T09:48:34;13.90;80.80
22769;DHT22;13001;51.968;5.918;2024-03-17T09:51:03;13.70;81.10
22769;DHT22;13001;51.968;5.918;2024-03-17T09:53:34;13.50;82.00
22769;DHT22;13001;51.968;5.918;2024-03-17T09:56:09;13.40;82.60
22769;DHT22;13001;51.968;5.918;2024-03-17T09:58:32;13.40;82.90
22769;DHT22;13001;51.968;5.918;2024-03-17T10:01:01;13.40;83.20
22769;DHT22;13001;51.968;5.918;2024-03-17T10:03:48;13.40;83.40
22769;DHT22;13001;51.968;5.918;2024-03-17T10:06:20;13.40;83.60
22769;DHT22;13001;51.968;5.918;2024-03-17T10:08:53;13.40;83.60
22769;DHT22;13001;51.968;5.918;2024-03-17T10:11:22;13.40;83.90
22769;DHT22;13001;51.968;5.918;2024-03-17T10:14:12;13.40;83.60
22769;DHT22;13001;51.968;5.918;2024-03-17T10:16:38;13.40;83.90
22769;DHT22;13001;51.968;5.918;2024-03-17T10:19:11;13.40;83.90
22769;DHT22;13001;51.968;5.918;2024-03-17T10:21:44;13.40;84.30
22769;DHT22;13001;51.968;5.918;2024-03-17T10:24:24;13.40;84.40
22769;DHT22;13001;51.968;5.918;2024-03-17T10:26:53;13.50;84.60
22769;DHT22;13001;51.968;5.918;2024-03-17T10:29:26;13.50;84.90
22769;DHT22;13001;51.968;5.918;2024-03-17T10:31:58;13.70;85.00
22769;DHT22;13001;51.968;5.918;2024-03-17T10:34:27;13.90;85.00
22769;DHT22;13001;51.968;5.918;2024-03-17T10:39:41;14.40;84.10
22769;DHT22;13001;51.968;5.918;2024-03-17T10:42:11;14.60;83.70
22769;DHT22;13001;51.968;5.918;2024-03-17T10:44:40;14.80;83.20
22769;DHT22;13001;51.968;5.918;2024-03-17T10:47:13;14.90;82.80
22769;DHT22;13001;51.968;5.918;2024-03-17T10:49:39;15.00;82.60
22769;DHT22;13001;51.968;5.918;2024-03-17T10:52:08;15.10;82.20
22769;DHT22;13001;51.968;5.918;2024-03-17T10:54:37;15.10;82.20
22769;DHT22;13001;51.968;5.918;2024-03-17T10:57:40;15.10;82.40
22769;DHT22;13001;51.968;5.918;2024-03-17T11:00:06;15.20;82.10
22769;DHT22;13001;51.968;5.918;2024-03-17T11:02:40;15.10;81.70
22769;DHT22;13001;51.968;5.918;2024-03-17T11:05:28;15.00;81.60
22769;DHT22;13001;51.968;5.918;2024-03-17T11:08:00;14.90;81.60
22769;DHT22;13001;51.968;5.918;2024-03-17T11:10:33;14.70;81.80
22769;DHT22;13001;51.968;5.918;2024-03-17T11:13:04;14.70;82.60
22769;DHT22;13001;51.968;5.918;2024-03-17T11:20:42;14.40;83.30
22769;DHT22;13001;51.968;5.918;2024-03-17T11:23:09;14.40;83.50
22769;DHT22;13001;51.968;5.918;2024-03-17T11:25:39;14.30;83.60
22769;DHT22;13001;51.968;5.918;2024-03-17T11:28:08;14.20;83.80
22769;DHT22;13001;51.968;5.918;2024-03-17T11:30:48;14.10;84.40
22769;DHT22;13001;51.968;5.918;2024-03-17T11:39:04;13.80;85.60
22769;DHT22;13001;51.968;5.918;2024-03-17T11:41:41;13.70;86.00
22769;DHT22;13001;51.968;5.918;2024-03-17T11:44:25;13.60;86.40
22769;DHT22;13001;51.968;5.918;2024-03-17T11:46:55;13.60;86.70
22769;DHT22;13001;51.968;5.918;2024-03-17T11:49:33;13.70;86.80
22769;DHT22;13001;51.968;5.918;2024-03-17T11:52:10;13.70;86.70
22769;DHT22;13001;51.968;5.918;2024-03-17T11:54:41;13.70;86.70
22769;DHT22;13001;51.968;5.918;2024-03-17T11:57:14;13.60;86.90
22769;DHT22;13001;51.968;5.918;2024-03-17T11:59:45;13.50;87.10
22769;DHT22;13001;51.968;5.918;2024-03-17T12:02:30;13.50;87.20
22769;DHT22;13001;51.968;5.918;2024-03-17T12:05:01;13.50;86.80
22769;DHT22;13001;51.968;5.918;2024-03-17T12:07:29;13.50;87.50
22769;DHT22;13001;51.968;5.918;2024-03-17T12:09:58;13.60;87.60
22769;DHT22;13001;51.968;5.918;2024-03-17T12:12:27;13.70;87.70
22769;DHT22;13001;51.968;5.918;2024-03-17T12:14:56;13.70;87.40
22769;DHT22;13001;51.968;5.918;2024-03-17T12:17:25;13.70;87.20
22769;DHT22;13001;51.968;5.918;2024-03-17T12:19:52;13.70;87.20
22769;DHT22;13001;51.968;5.918;2024-03-17T12:22:23;13.60;87.50
22769;DHT22;13001;51.968;5.918;2024-03-17T12:24:56;13.60;87.70
22769;DHT22;13001;51.968;5.918;2024-03-17T12:27:26;13.60;87.90
22769;DHT22;13001;51.968;5.918;2024-03-17T12:29:55;13.60;87.90
22769;DHT22;13001;51.968;5.918;2024-03-17T12:32:25;13.60;88.00
22769;DHT22;13001;51.968;5.918;2024-03-17T12:34:59;13.60;88.10
22769;DHT22;13001;51.968;5.918;2024-03-17T12:37:25;13.60;88.10
22769;DHT22;13001;51.968;5.918;2024-03-17T12:39:57;13.60;87.90
22769;DHT22;13001;51.968;5.918;2024-03-17T12:42:27;13.70;87.90
22769;DHT22;13001;51.968;5.918;2024-03-17T12:44:57;13.80;88.20
22769;DHT22;13001;51.968;5.918;2024-03-17T12:47:31;14.00;87.60
22769;DHT22;13001;51.968;5.918;2024-03-17T12:50:01;14.00;87.20
22769;DHT22;13001;51.968;5.918;2024-03-17T12:52:33;14.00;86.90
22769;DHT22;13001;51.968;5.918;2024-03-17T12:55:08;14.00;86.80
22769;DHT22;13001;51.968;5.918;2024-03-17T12:58:05;14.10;87.00
22769;DHT22;13001;51.968;5.918;2024-03-17T13:01:02;14.20;87.00
22769;DHT22;13001;51.968;5.918;2024-03-17T13:03:32;14.20;86.40
22769;DHT22;13001;51.968;5.918;2024-03-17T13:06:04;14.20;86.60
22769;DHT22;13001;51.968;5.918;2024-03-17T13:08:36;14.10;86.40
22769;DHT22;13001;51.968;5.918;2024-03-17T13:11:03;14.10;86.70
22769;DHT22;13001;51.968;5.918;2024-03-17T13:13:31;14.10;86.90
22769;DHT22;13001;51.968;5.918;2024-03-17T13:15:59;14.00;86.90
22769;DHT22;13001;51.968;5.918;2024-03-17T13:18:26;13.90;87.20
22769;DHT22;13001;51.968;5.918;2024-03-17T13:20:54;13.90;88.20
22769;DHT22;13001;51.968;5.918;2024-03-17T13:23:23;14.00;87.60
22769;DHT22;13001;51.968;5.918;2024-03-17T13:25:51;14.00;87.60
22769;DHT22;13001;51.968;5.918;2024-03-17T13:28:22;14.00;87.50
22769;DHT22;13001;51.968;5.918;2024-03-17T13:30:49;13.90;87.70
22769;DHT22;13001;51.968;5.918;2024-03-17T13:33:16;13.90;88.10
22769;DHT22;13001;51.968;5.918;2024-03-17T13:35:45;14.00;88.10
22769;DHT22;13001;51.968;5.918;2024-03-17T13:38:12;14.00;88.10
22769;DHT22;13001;51.968;5.918;2024-03-17T13:40:40;14.10;87.90
22769;DHT22;13001;51.968;5.918;2024-03-17T13:43:09;14.00;88.10
22769;DHT22;13001;51.968;5.918;2024-03-17T13:45:41;14.00;88.10
22769;DHT22;13001;51.968;5.918;2024-03-17T13:48:10;14.10;88.20
22769;DHT22;13001;51.968;5.918;2024-03-17T13:50:39;14.10;88.30
22769;DHT22;13001;51.968;5.918;2024-03-17T13:53:08;14.10;88.50
22769;DHT22;13001;51.968;5.918;2024-03-17T13:55:37;14.10;88.50
22769;DHT22;13001;51.968;5.918;2024-03-17T13:58:05;14.10;88.30
22769;DHT22;13001;51.968;5.918;2024-03-17T14:00:33;14.10;88.50
22769;DHT22;13001;51.968;5.918;2024-03-17T14:03:02;14.20;88.70
22769;DHT22;13001;51.968;5.918;2024-03-17T14:05:30;14.20;88.80
22769;DHT22;13001;51.968;5.918;2024-03-17T14:08:00;14.20;88.70
22769;DHT22;13001;51.968;5.918;2024-03-17T14:10:27;14.20;88.70
22769;DHT22;13001;51.968;5.918;2024-03-17T14:12:55;14.10;88.90
22769;DHT22;13001;51.968;5.918;2024-03-17T14:15:23;14.10;88.90
22769;DHT22;13001;51.968;5.918;2024-03-17T14:17:51;14.00;88.90
22769;DHT22;13001;51.968;5.918;2024-03-17T14:20:20;14.00;89.20
22769;DHT22;13001;51.968;5.918;2024-03-17T14:22:48;13.90;89.40
22769;DHT22;13001;51.968;5.918;2024-03-17T14:25:18;13.90;89.50
22769;DHT22;13001;51.968;5.918;2024-03-17T14:27:47;13.90;89.90
22769;DHT22;13001;51.968;5.918;2024-03-17T14:30:17;13.90;90.00
22769;DHT22;13001;51.968;5.918;2024-03-17T14:32:47;14.00;90.10
22769;DHT22;13001;51.968;5.918;2024-03-17T14:35:17;14.00;90.10
22769;DHT22;13001;51.968;5.918;2024-03-17T14:37:46;14.00;90.20
22769;DHT22;13001;51.968;5.918;2024-03-17T14:40:19;14.00;90.20
22769;DHT22;13001;51.968;5.918;2024-03-17T14:42:55;14.00;90.20
22769;DHT22;13001;51.968;5.918;2024-03-17T14:45:22;14.10;90.20
22769;DHT22;13001;51.968;5.918;2024-03-17T14:47:53;14.20;90.20
22769;DHT22;13001;51.968;5.918;2024-03-17T14:50:20;14.20;90.20
22769;DHT22;13001;51.968;5.918;2024-03-17T14:52:49;14.30;90.20
22769;DHT22;13001;51.968;5.918;2024-03-17T14:55:17;14.30;90.10
22769;DHT22;13001;51.968;5.918;2024-03-17T14:57:45;14.30;90.10
22769;DHT22;13001;51.968;5.918;2024-03-17T15:00:13;14.40;90.10
22769;DHT22;13001;51.968;5.918;2024-03-17T15:02:46;14.50;90.00
22769;DHT22;13001;51.968;5.918;2024-03-17T15:05:14;14.60;90.00
22769;DHT22;13001;51.968;5.918;2024-03-17T15:07:42;14.70;89.80
22769;DHT22;13001;51.968;5.918;2024-03-17T15:10:10;14.70;89.60
22769;DHT22;13001;51.968;5.918;2024-03-17T15:12:39;14.70;89.30
22769;DHT22;13001;51.968;5.918;2024-03-17T15:15:07;14.70;89.20
22769;DHT22;13001;51.968;5.918;2024-03-17T15:17:37;14.70;89.30
22769;DHT22;13001;51.968;5.918;2024-03-17T15:20:05;14.60;89.30
22769;DHT22;13001;51.968;5.918;2024-03-17T15:22:34;14.60;89.30
22769;DHT22;13001;51.968;5.918;2024-03-17T15:25:02;14.60;89.50
22769;DHT22;13001;51.968;5.918;2024-03-17T15:27:31;14.60;89.40
22769;DHT22;13001;51.968;5.918;2024-03-17T15:29:59;14.60;89.50
22769;DHT22;13001;51.968;5.918;2024-03-17T15:32:27;14.60;89.30
22769;DHT22;13001;51.968;5.918;2024-03-17T15:34:54;14.60;89.10
22769;DHT22;13001;51.968;5.918;2024-03-17T15:37:23;14.50;89.30
22769;DHT22;13001;51.968;5.918;2024-03-17T15:39:51;14.50;89.40
22769;DHT22;13001;51.968;5.918;2024-03-17T15:42:19;14.40;89.50
22769;DHT22;13001;51.968;5.918;2024-03-17T15:44:46;14.30;89.60
22769;DHT22;13001;51.968;5.918;2024-03-17T15:47:14;14.30;89.80
22769;DHT22;13001;51.968;5.918;2024-03-17T15:49:41;14.30;89.90
22769;DHT22;13001;51.968;5.918;2024-03-17T15:52:10;14.20;89.80
22769;DHT22;13001;51.968;5.918;2024-03-17T15:54:37;14.30;90.00
22769;DHT22;13001;51.968;5.918;2024-03-17T15:57:05;14.20;89.90
22769;DHT22;13001;51.968;5.918;2024-03-17T15:59:33;14.20;90.00
22769;DHT22;13001;51.968;5.918;2024-03-17T16:02:01;14.20;90.00
22769;DHT22;13001;51.968;5.918;2024-03-17T16:04:30;14.20;90.10
22769;DHT22;13001;51.968;5.918;2024-03-17T16:06:58;14.20;90.10
22769;DHT22;13001;51.968;5.918;2024-03-17T16:09:26;14.20;90.20